sensor_id;sensor_type;location;lat;lon;timestamp;pressure;altitude;pressure_sealevel;temperature;humidity
65359;BME280;52491;45.900;6.346;2022-07-17T00:01:46;94318.75;;;27.55;35.23
65359;BME280;52491;45.900;6.346;2022-07-17T00:04:12;94319.56;;;27.55;35.59
65359;BME280;52491;45.900;6.346;2022-07-17T00:06:37;94324.13;;;27.55;35.32
65359;BME280;52491;45.900;6.346;2022-07-17T00:09:03;94327.59;;;27.55;35.32
65359;BME280;52491;45.900;6.346;2022-07-17T00:11:29;94319.06;;;27.53;35.45
65359;BME280;52491;45.900;6.346;2022-07-17T00:13:55;94329.47;;;27.55;35.47
65359;BME280;52491;45.900;6.346;2022-07-17T00:16:21;94319.84;;;27.54;35.37
65359;BME280;52491;45.900;6.346;2022-07-17T00:18:47;94323.31;;;27.54;35.24
65359;BME280;52491;45.900;6.346;2022-07-17T00:21:12;94322.53;;;27.54;35.16
65359;BME280;52491;45.900;6.346;2022-07-17T00:23:38;94325.22;;;27.54;35.21
65359;BME280;52491;45.900;6.346;2022-07-17T00:26:04;94322.53;;;27.54;35.27
65359;BME280;52491;45.900;6.346;2022-07-17T00:28:30;94317.97;;;27.54;35.38
65359;BME280;52491;45.900;6.346;2022-07-17T00:30:55;94314.50;;;27.54;35.42
65359;BME280;52491;45.900;6.346;2022-07-17T00:33:21;94319.84;;;27.54;35.22
65359;BME280;52491;45.900;6.346;2022-07-17T00:35:47;94325.22;;;27.54;35.42
65359;BME280;52491;45.900;6.346;2022-07-17T00:38:12;94323.31;;;27.54;35.23
65359;BME280;52491;45.900;6.346;2022-07-17T00:40:39;94326.00;;;27.54;35.39
65359;BME280;52491;45.900;6.346;2022-07-17T00:43:05;94326.81;;;27.55;35.20
65359;BME280;52491;45.900;6.346;2022-07-17T00:45:30;94327.88;;;27.54;35.06
65359;BME280;52491;45.900;6.346;2022-07-17T00:48:01;94325.22;;;27.54;35.20
65359;BME280;52491;45.900;6.346;2022-07-17T00:50:34;94327.88;;;27.54;35.01
65359;BME280;52491;45.900;6.346;2022-07-17T00:53:01;94330.56;;;27.54;35.12
65359;BME280;52491;45.900;6.346;2022-07-17T00:55:28;94327.88;;;27.54;35.33
65359;BME280;52491;45.900;6.346;2022-07-17T00:57:55;94327.88;;;27.54;35.01
65359;BME280;52491;45.900;6.346;2022-07-17T01:00:21;94330.56;;;27.54;35.21
65359;BME280;52491;45.900;6.346;2022-07-17T01:02:48;94334.03;;;27.54;35.20
65359;BME280;52491;45.900;6.346;2022-07-17T01:05:15;94329.75;;;27.53;35.12
65359;BME280;52491;45.900;6.346;2022-07-17T01:07:41;94327.88;;;27.54;35.29
65359;BME280;52491;45.900;6.346;2022-07-17T01:10:08;94325.47;;;27.52;35.10
65359;BME280;52491;45.900;6.346;2022-07-17T01:12:34;94329.22;;;27.51;34.99
65359;BME280;52491;45.900;6.346;2022-07-17T01:15:01;94325.47;;;27.52;35.00
65359;BME280;52491;45.900;6.346;2022-07-17T01:17:27;94329.75;;;27.53;35.18
65359;BME280;52491;45.900;6.346;2022-07-17T01:19:52;94320.91;;;27.53;35.28
65359;BME280;52491;45.900;6.346;2022-07-17T01:22:19;94326.25;;;27.53;35.08
65359;BME280;52491;45.900;6.346;2022-07-17T01:24:45;94326.25;;;27.53;35.08
65359;BME280;52491;45.900;6.346;2022-07-17T01:27:11;94330.81;;;27.52;34.97
65359;BME280;52491;45.900;6.346;2022-07-17T01:29:37;94336.19;;;27.52;34.86
65359;BME280;52491;45.900;6.346;2022-07-17T01:32:04;94338.84;;;27.52;34.96
65359;BME280;52491;45.900;6.346;2022-07-17T01:34:30;94341.53;;;27.52;35.02
65359;BME280;52491;45.900;6.346;2022-07-17T01:36:55;94331.63;;;27.53;35.11
65359;BME280;52491;45.900;6.346;2022-07-17T01:39:21;94339.66;;;27.53;34.84
65359;BME280;52491;45.900;6.346;2022-07-17T01:42:05;94333.78;;;27.51;35.03
65359;BME280;52491;45.900;6.346;2022-07-17T01:44:31;94332.69;;;27.52;35.13
65359;BME280;52491;45.900;6.346;2022-07-17T01:46:56;94328.44;;;27.51;34.90
65359;BME280;52491;45.900;6.346;2022-07-17T01:49:22;94330.03;;;27.52;35.03
65359;BME280;52491;45.900;6.346;2022-07-17T01:51:47;94337.25;;;27.51;34.85
65359;BME280;52491;45.900;6.346;2022-07-17T01:54:15;94340.75;;;27.52;34.96
65359;BME280;52491;45.900;6.346;2022-07-17T01:56:40;94339.16;;;27.51;35.01
65359;BME280;52491;45.900;6.346;2022-07-17T01:59:06;94328.44;;;27.51;34.88
65359;BME280;52491;45.900;6.346;2022-07-17T02:01:31;94339.16;;;27.51;35.12
65359;BME280;52491;45.900;6.346;2022-07-17T02:03:57;94332.69;;;27.52;34.95
65359;BME280;52491;45.900;6.346;2022-07-17T02:06:22;94336.47;;;27.51;34.88
65359;BME280;52491;45.900;6.346;2022-07-17T02:08:48;94336.47;;;27.51;35.17
65359;BME280;52491;45.900;6.346;2022-07-17T02:11:17;94335.63;;;27.50;34.79
65359;BME280;52491;45.900;6.346;2022-07-17T02:13:43;94335.63;;;27.50;35.07
65359;BME280;52491;45.900;6.346;2022-07-17T02:16:08;94335.63;;;27.50;34.98
65359;BME280;52491;45.900;6.346;2022-07-17T02:18:34;94342.88;;;27.50;35.02
65359;BME280;52491;45.900;6.346;2022-07-17T02:21:00;94341.00;;;27.50;35.13
65359;BME280;52491;45.900;6.346;2022-07-17T02:23:26;94332.16;;;27.50;34.83
65359;BME280;52491;45.900;6.346;2022-07-17T02:25:53;94329.47;;;27.50;34.69
65359;BME280;52491;45.900;6.346;2022-07-17T02:28:19;94326.81;;;27.50;34.91
65359;BME280;52491;45.900;6.346;2022-07-17T02:30:46;94317.19;;;27.49;34.87
65359;BME280;52491;45.900;6.346;2022-07-17T02:33:11;94325.75;;;27.51;35.02
65359;BME280;52491;45.900;6.346;2022-07-17T02:35:37;94327.59;;;27.50;35.09
65359;BME280;52491;45.900;6.346;2022-07-17T02:38:03;94330.28;;;27.50;34.96
65359;BME280;52491;45.900;6.346;2022-07-17T02:40:28;94328.44;;;27.51;34.90
65359;BME280;52491;45.900;6.346;2022-07-17T02:42:54;94322.25;;;27.50;35.03
65359;BME280;52491;45.900;6.346;2022-07-17T02:45:19;94326.81;;;27.50;34.78
65359;BME280;52491;45.900;6.346;2022-07-17T02:47:52;94317.97;;;27.49;34.69
65359;BME280;52491;45.900;6.346;2022-07-17T02:50:19;94321.44;;;27.50;34.91
65359;BME280;52491;45.900;6.346;2022-07-17T02:52:45;94326.81;;;27.50;34.86
65359;BME280;52491;45.900;6.346;2022-07-17T02:55:10;94314.50;;;27.49;34.70
65359;BME280;52491;45.900;6.346;2022-07-17T02:57:39;94321.44;;;27.50;34.94
65359;BME280;52491;45.900;6.346;2022-07-17T03:00:07;94317.97;;;27.49;34.91
65359;BME280;52491;45.900;6.346;2022-07-17T03:02:34;94315.28;;;27.49;34.67
65359;BME280;52491;45.900;6.346;2022-07-17T03:04:59;94309.94;;;27.49;34.49
65359;BME280;52491;45.900;6.346;2022-07-17T03:07:25;94318.78;;;27.50;34.94
65359;BME280;52491;45.900;6.346;2022-07-17T03:09:50;94309.16;;;27.49;34.87
65359;BME280;52491;45.900;6.346;2022-07-17T03:12:16;94317.97;;;27.49;34.69
65359;BME280;52491;45.900;6.346;2022-07-17T03:14:41;94315.28;;;27.49;34.89
65359;BME280;52491;45.900;6.346;2022-07-17T03:17:07;94317.19;;;27.49;34.85
65359;BME280;52491;45.900;6.346;2022-07-17T03:19:33;94312.63;;;27.49;34.67
65359;BME280;52491;45.900;6.346;2022-07-17T03:21:59;94311.81;;;27.49;34.74
65359;BME280;52491;45.900;6.346;2022-07-17T03:24:25;94307.25;;;27.49;34.53
65359;BME280;52491;45.900;6.346;2022-07-17T03:26:50;94312.63;;;27.49;34.75
65359;BME280;52491;45.900;6.346;2022-07-17T03:29:16;94309.94;;;27.49;34.81
65359;BME280;52491;45.900;6.346;2022-07-17T03:31:46;94304.59;;;27.49;34.84
65359;BME280;52491;45.900;6.346;2022-07-17T03:34:12;94311.53;;;27.50;34.70
65359;BME280;52491;45.900;6.346;2022-07-17T03:36:38;94310.75;;;27.50;34.70
65359;BME280;52491;45.900;6.346;2022-07-17T03:39:04;94317.97;;;27.49;34.49
65359;BME280;52491;45.900;6.346;2022-07-17T03:41:30;94313.41;;;27.50;34.60
65359;BME280;52491;45.900;6.346;2022-07-17T03:43:55;94315.28;;;27.49;34.54
65359;BME280;52491;45.900;6.346;2022-07-17T03:46:21;94314.50;;;27.49;34.58
65359;BME280;52491;45.900;6.346;2022-07-17T03:48:47;94309.16;;;27.49;34.79
65359;BME280;52491;45.900;6.346;2022-07-17T03:51:13;94313.69;;;27.48;34.64
65359;BME280;52491;45.900;6.346;2022-07-17T03:53:38;94312.91;;;27.48;34.75
65359;BME280;52491;45.900;6.346;2022-07-17T03:56:04;94322.25;;;27.50;34.62
65359;BME280;52491;45.900;6.346;2022-07-17T03:58:30;94311.81;;;27.49;34.69
65359;BME280;52491;45.900;6.346;2022-07-17T04:00:57;94315.28;;;27.49;34.64
65359;BME280;52491;45.900;6.346;2022-07-17T04:03:23;94317.19;;;27.49;34.57
65359;BME280;52491;45.900;6.346;2022-07-17T04:05:48;94322.25;;;27.50;34.76
65359;BME280;52491;45.900;6.346;2022-07-17T04:08:14;94324.13;;;27.50;34.78
65359;BME280;52491;45.900;6.346;2022-07-17T04:10:40;94326.81;;;27.50;34.60
65359;BME280;52491;45.900;6.346;2022-07-17T04:13:06;94326.00;;;27.49;34.67
65359;BME280;52491;45.900;6.346;2022-07-17T04:15:31;94326.00;;;27.49;34.71
65359;BME280;52491;45.900;6.346;2022-07-17T04:18:21;94330.56;;;27.49;34.79
65359;BME280;52491;45.900;6.346;2022-07-17T04:20:48;94335.13;;;27.48;34.68
65359;BME280;52491;45.900;6.346;2022-07-17T04:23:14;94334.34;;;27.48;34.57
65359;BME280;52491;45.900;6.346;2022-07-17T04:25:40;94337.81;;;27.48;34.63
65359;BME280;52491;45.900;6.346;2022-07-17T04:28:06;94334.34;;;27.48;34.80
65359;BME280;52491;45.900;6.346;2022-07-17T04:30:33;94341.28;;;27.49;34.58
65359;BME280;52491;45.900;6.346;2022-07-17T04:32:58;94337.81;;;27.48;34.55
65359;BME280;52491;45.900;6.346;2022-07-17T04:35:24;94342.06;;;27.49;34.49
65359;BME280;52491;45.900;6.346;2022-07-17T04:37:50;94340.47;;;27.48;34.46
65359;BME280;52491;45.900;6.346;2022-07-17T04:40:15;94344.22;;;27.47;34.74
65359;BME280;52491;45.900;6.346;2022-07-17T04:42:41;94347.72;;;27.48;34.49
65359;BME280;52491;45.900;6.346;2022-07-17T04:45:07;94346.91;;;27.47;34.43
65359;BME280;52491;45.900;6.346;2022-07-17T04:47:36;94344.22;;;27.47;34.44
65359;BME280;52491;45.900;6.346;2022-07-17T04:50:02;94341.53;;;27.47;34.59
65359;BME280;52491;45.900;6.346;2022-07-17T04:52:28;94340.75;;;27.47;34.50
65359;BME280;52491;45.900;6.346;2022-07-17T04:54:53;94337.25;;;27.46;34.77
65359;BME280;52491;45.900;6.346;2022-07-17T04:57:19;94342.63;;;27.46;34.77
65359;BME280;52491;45.900;6.346;2022-07-17T04:59:44;94347.19;;;27.45;34.48
65359;BME280;52491;45.900;6.346;2022-07-17T05:02:10;94343.41;;;27.47;34.20
65359;BME280;52491;45.900;6.346;2022-07-17T05:04:36;94342.63;;;27.46;34.49
65359;BME280;52491;45.900;6.346;2022-07-17T05:07:01;94341.81;;;27.45;34.67
65359;BME280;52491;45.900;6.346;2022-07-17T05:09:27;94339.94;;;27.46;34.70
65359;BME280;52491;45.900;6.346;2022-07-17T05:11:53;94331.13;;;27.45;34.70
65359;BME280;52491;45.900;6.346;2022-07-17T05:14:18;94326.56;;;27.46;34.56
65359;BME280;52491;45.900;6.346;2022-07-17T05:16:44;94326.56;;;27.46;34.63
65359;BME280;52491;45.900;6.346;2022-07-17T05:19:09;94319.59;;;27.45;34.34
65359;BME280;52491;45.900;6.346;2022-07-17T05:21:35;94333.78;;;27.45;34.59
65359;BME280;52491;45.900;6.346;2022-07-17T05:24:01;94327.63;;;27.45;34.28
65359;BME280;52491;45.900;6.346;2022-07-17T05:26:26;94329.50;;;27.44;34.45
65359;BME280;52491;45.900;6.346;2022-07-17T05:28:52;94332.16;;;27.44;34.47
65359;BME280;52491;45.900;6.346;2022-07-17T05:31:18;94324.97;;;27.45;34.69
65359;BME280;52491;45.900;6.346;2022-07-17T05:33:44;94325.75;;;27.45;34.65
65359;BME280;52491;45.900;6.346;2022-07-17T05:36:10;94329.50;;;27.44;34.54
65359;BME280;52491;45.900;6.346;2022-07-17T05:38:36;94332.16;;;27.44;34.55
65359;BME280;52491;45.900;6.346;2022-07-17T05:41:03;94334.59;;;27.46;34.60
65359;BME280;52491;45.900;6.346;2022-07-17T05:43:28;94334.84;;;27.44;34.48
65359;BME280;52491;45.900;6.346;2022-07-17T05:45:57;94325.22;;;27.43;34.32
65359;BME280;52491;45.900;6.346;2022-07-17T05:48:23;94329.50;;;27.44;34.43
65359;BME280;52491;45.900;6.346;2022-07-17T05:50:49;94324.13;;;27.44;34.67
65359;BME280;52491;45.900;6.346;2022-07-17T05:53:15;94330.31;;;27.45;34.67
65359;BME280;52491;45.900;6.346;2022-07-17T05:55:41;94328.44;;;27.45;34.67
65359;BME280;52491;45.900;6.346;2022-07-17T05:58:07;94325.75;;;27.45;34.56
65359;BME280;52491;45.900;6.346;2022-07-17T06:00:33;94325.75;;;27.45;34.77
65359;BME280;52491;45.900;6.346;2022-07-17T06:03:00;94328.44;;;27.45;34.32
65359;BME280;52491;45.900;6.346;2022-07-17T06:05:26;94324.97;;;27.45;34.55
65359;BME280;52491;45.900;6.346;2022-07-17T06:07:55;94315.03;;;27.45;34.65
65359;BME280;52491;45.900;6.346;2022-07-17T06:10:22;94318.53;;;27.46;34.74
65359;BME280;52491;45.900;6.346;2022-07-17T06:12:48;94310.50;;;27.46;34.45
65359;BME280;52491;45.900;6.346;2022-07-17T06:15:15;94314.25;;;27.45;34.56
65359;BME280;52491;45.900;6.346;2022-07-17T06:17:41;94314.25;;;27.45;34.63
65359;BME280;52491;45.900;6.346;2022-07-17T06:20:07;94314.25;;;27.45;34.66
65359;BME280;52491;45.900;6.346;2022-07-17T06:22:34;94312.63;;;27.44;34.62
65359;BME280;52491;45.900;6.346;2022-07-17T06:24:59;94327.63;;;27.45;34.76
65359;BME280;52491;45.900;6.346;2022-07-17T06:27:25;94317.19;;;27.43;34.49
65359;BME280;52491;45.900;6.346;2022-07-17T06:29:50;94319.59;;;27.45;34.75
65359;BME280;52491;45.900;6.346;2022-07-17T06:32:16;94319.59;;;27.45;34.82
65359;BME280;52491;45.900;6.346;2022-07-17T06:34:42;94330.31;;;27.45;34.63
65359;BME280;52491;45.900;6.346;2022-07-17T06:37:08;94328.44;;;27.45;34.59
65359;BME280;52491;45.900;6.346;2022-07-17T06:39:34;94319.59;;;27.45;34.72
65359;BME280;52491;45.900;6.346;2022-07-17T06:42:00;94326.81;;;27.44;34.69
65359;BME280;52491;45.900;6.346;2022-07-17T06:44:26;94326.81;;;27.44;34.33
65359;BME280;52491;45.900;6.346;2022-07-17T06:46:53;94332.16;;;27.44;34.51
65359;BME280;52491;45.900;6.346;2022-07-17T06:49:18;94335.66;;;27.45;34.75
65359;BME280;52491;45.900;6.346;2022-07-17T06:51:44;94332.16;;;27.44;34.59
65359;BME280;52491;45.900;6.346;2022-07-17T06:54:14;94338.34;;;27.45;34.65
65359;BME280;52491;45.900;6.346;2022-07-17T06:56:41;94341.03;;;27.45;34.60
65359;BME280;52491;45.900;6.346;2022-07-17T06:59:06;94334.03;;;27.44;34.60
65359;BME280;52491;45.900;6.346;2022-07-17T07:01:36;94336.72;;;27.44;34.59
65359;BME280;52491;45.900;6.346;2022-07-17T07:04:03;94333.00;;;27.45;34.79
65359;BME280;52491;45.900;6.346;2022-07-17T07:06:30;94334.03;;;27.44;34.65
65359;BME280;52491;45.900;6.346;2022-07-17T07:08:56;94346.38;;;27.45;34.86
65359;BME280;52491;45.900;6.346;2022-07-17T07:11:23;94342.63;;;27.46;34.70
65359;BME280;52491;45.900;6.346;2022-07-17T07:13:49;94340.19;;;27.44;34.91
65359;BME280;52491;45.900;6.346;2022-07-17T07:16:14;94341.81;;;27.45;34.77
65359;BME280;52491;45.900;6.346;2022-07-17T07:18:40;94344.50;;;27.45;34.71
65359;BME280;52491;45.900;6.346;2022-07-17T07:21:06;94345.03;;;27.48;34.77
65359;BME280;52491;45.900;6.346;2022-07-17T07:23:31;94342.63;;;27.46;34.65
65359;BME280;52491;45.900;6.346;2022-07-17T07:25:57;94345.56;;;27.44;34.82
65359;BME280;52491;45.900;6.346;2022-07-17T07:28:22;94345.31;;;27.46;34.45
65359;BME280;52491;45.900;6.346;2022-07-17T07:30:48;94346.09;;;27.47;34.49
65359;BME280;52491;45.900;6.346;2022-07-17T07:33:14;94343.41;;;27.47;34.82
65359;BME280;52491;45.900;6.346;2022-07-17T07:35:41;94349.56;;;27.47;34.63
65359;BME280;52491;45.900;6.346;2022-07-17T07:38:07;94355.75;;;27.48;34.84
65359;BME280;52491;45.900;6.346;2022-07-17T07:40:33;94354.94;;;27.47;34.87
65359;BME280;52491;45.900;6.346;2022-07-17T07:42:59;94350.41;;;27.48;34.77
65359;BME280;52491;45.900;6.346;2022-07-17T07:45:24;94348.53;;;27.48;34.82
65359;BME280;52491;45.900;6.346;2022-07-17T07:47:50;94344.22;;;27.47;34.80
65359;BME280;52491;45.900;6.346;2022-07-17T07:50:17;94337.00;;;27.48;34.69
65359;BME280;52491;45.900;6.346;2022-07-17T07:52:43;94339.69;;;27.48;34.77
65359;BME280;52491;45.900;6.346;2022-07-17T07:55:10;94345.84;;;27.48;34.82
65359;BME280;52491;45.900;6.346;2022-07-17T07:57:36;94342.38;;;27.48;34.74
65359;BME280;52491;45.900;6.346;2022-07-17T08:00:04;94341.28;;;27.49;34.89
65359;BME280;52491;45.900;6.346;2022-07-17T08:02:31;94340.47;;;27.48;35.02
65359;BME280;52491;45.900;6.346;2022-07-17T08:04:56;94341.28;;;27.49;35.00
65359;BME280;52491;45.900;6.346;2022-07-17T08:07:22;94346.63;;;27.49;34.79
65359;BME280;52491;45.900;6.346;2022-07-17T08:09:47;94343.97;;;27.49;34.90
65359;BME280;52491;45.900;6.346;2022-07-17T08:12:14;94343.97;;;27.49;34.74
65359;BME280;52491;45.900;6.346;2022-07-17T08:14:39;94345.84;;;27.48;34.80
65359;BME280;52491;45.900;6.346;2022-07-17T08:17:05;94345.56;;;27.50;35.01
65359;BME280;52491;45.900;6.346;2022-07-17T08:19:31;94342.06;;;27.49;34.79
65359;BME280;52491;45.900;6.346;2022-07-17T08:21:56;94342.06;;;27.49;34.93
65359;BME280;52491;45.900;6.346;2022-07-17T08:24:22;94340.19;;;27.50;34.75
65359;BME280;52491;45.900;6.346;2022-07-17T08:26:47;94341.28;;;27.49;34.95
65359;BME280;52491;45.900;6.346;2022-07-17T08:29:13;94345.56;;;27.50;34.70
65359;BME280;52491;45.900;6.346;2022-07-17T08:31:41;94338.31;;;27.50;34.88
65359;BME280;52491;45.900;6.346;2022-07-17T08:34:07;94335.63;;;27.50;34.95
65359;BME280;52491;45.900;6.346;2022-07-17T08:36:33;94339.16;;;27.51;35.06
65359;BME280;52491;45.900;6.346;2022-07-17T08:38:59;94337.25;;;27.51;34.78
65359;BME280;52491;45.900;6.346;2022-07-17T08:41:25;94332.69;;;27.52;34.89
65359;BME280;52491;45.900;6.346;2022-07-17T08:43:52;94322.00;;;27.52;34.92
65359;BME280;52491;45.900;6.346;2022-07-17T08:46:24;94325.47;;;27.52;34.69
65359;BME280;52491;45.900;6.346;2022-07-17T08:48:56;94329.22;;;27.51;34.79
65359;BME280;52491;45.900;6.346;2022-07-17T08:51:25;94327.34;;;27.52;34.91
65359;BME280;52491;45.900;6.346;2022-07-17T08:53:52;94323.88;;;27.51;34.90
65359;BME280;52491;45.900;6.346;2022-07-17T08:56:18;94330.81;;;27.52;34.95
65359;BME280;52491;45.900;6.346;2022-07-17T08:58:43;94330.03;;;27.52;34.89
65359;BME280;52491;45.900;6.346;2022-07-17T09:01:09;94331.91;;;27.51;34.96
65359;BME280;52491;45.900;6.346;2022-07-17T09:03:35;94327.34;;;27.52;34.74
65359;BME280;52491;45.900;6.346;2022-07-17T09:06:02;94320.09;;;27.52;34.77
65359;BME280;52491;45.900;6.346;2022-07-17T09:08:28;94326.25;;;27.53;34.83
65359;BME280;52491;45.900;6.346;2022-07-17T09:10:58;94324.66;;;27.52;34.89
65359;BME280;52491;45.900;6.346;2022-07-17T09:13:26;94324.66;;;27.52;34.79
65359;BME280;52491;45.900;6.346;2022-07-17T09:15:58;94315.53;;;27.53;34.85
65359;BME280;52491;45.900;6.346;2022-07-17T09:18:24;94322.53;;;27.54;34.75
65359;BME280;52491;45.900;6.346;2022-07-17T09:20:55;94321.72;;;27.53;35.00
65359;BME280;52491;45.900;6.346;2022-07-17T09:23:23;94314.75;;;27.52;35.04
65359;BME280;52491;45.900;6.346;2022-07-17T09:25:52;94312.06;;;27.52;34.97
65359;BME280;52491;45.900;6.346;2022-07-17T09:28:18;94319.06;;;27.53;35.01
65359;BME280;52491;45.900;6.346;2022-07-17T09:30:48;94322.53;;;27.54;34.58
65359;BME280;52491;45.900;6.346;2022-07-17T09:33:22;94321.72;;;27.53;34.83
65359;BME280;52491;45.900;6.346;2022-07-17T09:38:35;94320.91;;;27.53;34.94
65359;BME280;52491;45.900;6.346;2022-07-17T09:41:17;94319.84;;;27.54;34.89
65359;BME280;52491;45.900;6.346;2022-07-17T09:43:49;94317.97;;;27.54;34.88
65359;BME280;52491;45.900;6.346;2022-07-17T09:46:23;94326.81;;;27.55;34.93
65359;BME280;52491;45.900;6.346;2022-07-17T09:48:52;94324.91;;;27.55;34.80
65359;BME280;52491;45.900;6.346;2022-07-17T09:51:32;94322.25;;;27.55;35.13
65359;BME280;52491;45.900;6.346;2022-07-17T09:54:01;94323.03;;;27.56;35.03
65359;BME280;52491;45.900;6.346;2022-07-17T09:56:28;94321.19;;;27.56;35.00
65359;BME280;52491;45.900;6.346;2022-07-17T09:59:00;94326.53;;;27.56;35.05
65359;BME280;52491;45.900;6.346;2022-07-17T10:01:26;94320.09;;;27.57;34.99
65359;BME280;52491;45.900;6.346;2022-07-17T10:03:52;94322.78;;;27.57;34.93
65359;BME280;52491;45.900;6.346;2022-07-17T10:06:22;94322.78;;;27.57;34.98
65359;BME280;52491;45.900;6.346;2022-07-17T10:08:48;94320.09;;;27.57;34.93
65359;BME280;52491;45.900;6.346;2022-07-17T10:11:14;94319.84;;;27.59;35.19
65359;BME280;52491;45.900;6.346;2022-07-17T10:13:42;94321.69;;;27.58;35.21
65359;BME280;52491;45.900;6.346;2022-07-17T10:16:12;94325.19;;;27.59;34.83
65359;BME280;52491;45.900;6.346;2022-07-17T10:18:40;94329.72;;;27.58;35.17
65359;BME280;52491;45.900;6.346;2022-07-17T10:21:11;94326.78;;;27.60;35.09
65359;BME280;52491;45.900;6.346;2022-07-17T10:23:37;94326.78;;;27.60;34.99
65359;BME280;52491;45.900;6.346;2022-07-17T10:26:03;94323.31;;;27.59;35.07
65359;BME280;52491;45.900;6.346;2022-07-17T10:28:46;94321.69;;;27.58;35.13
65359;BME280;52491;45.900;6.346;2022-07-17T10:31:28;94320.63;;;27.59;34.87
65359;BME280;52491;45.900;6.346;2022-07-17T10:34:01;94317.97;;;27.59;35.20
65359;BME280;52491;45.900;6.346;2022-07-17T10:36:38;94318.75;;;27.60;34.89
65359;BME280;52491;45.900;6.346;2022-07-17T10:41:39;94323.03;;;27.61;35.00
65359;BME280;52491;45.900;6.346;2022-07-17T10:44:05;94321.16;;;27.61;35.14
65359;BME280;52491;45.900;6.346;2022-07-17T10:46:31;94325.72;;;27.61;34.98
65359;BME280;52491;45.900;6.346;2022-07-17T10:48:57;94320.34;;;27.61;35.07
65359;BME280;52491;45.900;6.346;2022-07-17T10:51:25;94321.97;;;27.62;35.12
65359;BME280;52491;45.900;6.346;2022-07-17T10:53:56;94323.81;;;27.61;35.07
65359;BME280;52491;45.900;6.346;2022-07-17T10:56:24;94320.34;;;27.61;35.03
65359;BME280;52491;45.900;6.346;2022-07-17T10:58:52;94317.41;;;27.62;35.01
65359;BME280;52491;45.900;6.346;2022-07-17T11:01:19;94326.50;;;27.61;35.13
65359;BME280;52491;45.900;6.346;2022-07-17T11:03:50;94318.22;;;27.63;35.07
65359;BME280;52491;45.900;6.346;2022-07-17T11:08:51;94318.22;;;27.63;34.88
65359;BME280;52491;45.900;6.346;2022-07-17T11:11:20;94315.53;;;27.63;35.20
65359;BME280;52491;45.900;6.346;2022-07-17T11:13:46;94315.53;;;27.63;35.23
65359;BME280;52491;45.900;6.346;2022-07-17T11:16:11;94310.19;;;27.63;35.02
65359;BME280;52491;45.900;6.346;2022-07-17T11:18:46;94310.19;;;27.63;35.13
65359;BME280;52491;45.900;6.346;2022-07-17T11:21:13;94310.97;;;27.63;35.11
65359;BME280;52491;45.900;6.346;2022-07-17T11:23:51;94304.81;;;27.63;35.19
65359;BME280;52491;45.900;6.346;2022-07-17T11:26:18;94309.09;;;27.64;35.23
65359;BME280;52491;45.900;6.346;2022-07-17T11:28:45;94306.41;;;27.64;35.18
65359;BME280;52491;45.900;6.346;2022-07-17T11:31:25;94305.63;;;27.63;35.20
65359;BME280;52491;45.900;6.346;2022-07-17T11:34:01;94313.38;;;27.65;35.27
65359;BME280;52491;45.900;6.346;2022-07-17T11:36:30;94310.72;;;27.65;35.07
65359;BME280;52491;45.900;6.346;2022-07-17T11:39:07;94307.25;;;27.64;35.19
65359;BME280;52491;45.900;6.346;2022-07-17T11:41:43;94306.41;;;27.64;35.12
65359;BME280;52491;45.900;6.346;2022-07-17T11:44:11;94311.78;;;27.64;35.23
65359;BME280;52491;45.900;6.346;2022-07-17T11:46:39;94308.84;;;27.65;35.28
65359;BME280;52491;45.900;6.346;2022-07-17T11:49:06;94304.28;;;27.66;35.14
65359;BME280;52491;45.900;6.346;2022-07-17T11:51:43;94309.63;;;27.66;35.22
65359;BME280;52491;45.900;6.346;2022-07-17T11:54:11;94313.09;;;27.66;34.96
65359;BME280;52491;45.900;6.346;2022-07-17T11:56:38;94313.09;;;27.66;35.36
65359;BME280;52491;45.900;6.346;2022-07-17T11:59:05;94311.22;;;27.67;35.44
65359;BME280;52491;45.900;6.346;2022-07-17T12:01:39;94321.94;;;27.67;35.12
65359;BME280;52491;45.900;6.346;2022-07-17T12:04:07;94320.88;;;27.68;35.39
65359;BME280;52491;45.900;6.346;2022-07-17T12:06:33;94317.66;;;27.66;35.35
65359;BME280;52491;45.900;6.346;2022-07-17T12:08:59;94315.78;;;27.66;35.28
65359;BME280;52491;45.900;6.346;2022-07-17T12:11:24;94307.50;;;27.68;35.44
65359;BME280;52491;45.900;6.346;2022-07-17T12:13:50;94323.56;;;27.68;35.24
65359;BME280;52491;45.900;6.346;2022-07-17T12:16:27;94314.72;;;27.67;35.39
65359;BME280;52491;45.900;6.346;2022-07-17T12:21:50;94316.56;;;27.67;35.45
65359;BME280;52491;45.900;6.346;2022-07-17T12:24:35;94315.53;;;27.68;35.34
65359;BME280;52491;45.900;6.346;2022-07-17T12:27:02;94311.53;;;27.60;35.40
65359;BME280;52491;45.900;6.346;2022-07-17T12:29:28;94320.88;;;27.68;35.21
65359;BME280;52491;45.900;6.346;2022-07-17T12:34:30;94313.38;;;27.70;35.23
65359;BME280;52491;45.900;6.346;2022-07-17T12:36:56;94312.84;;;27.68;35.33
65359;BME280;52491;45.900;6.346;2022-07-17T12:39:21;94312.56;;;27.70;35.20
65359;BME280;52491;45.900;6.346;2022-07-17T12:41:47;94308.28;;;27.68;35.46
65359;BME280;52491;45.900;6.346;2022-07-17T12:44:12;94309.06;;;27.69;35.55
65359;BME280;52491;45.900;6.346;2022-07-17T12:46:38;94307.19;;;27.70;35.31
65359;BME280;52491;45.900;6.346;2022-07-17T12:49:04;94310.97;;;27.68;35.34
65359;BME280;52491;45.900;6.346;2022-07-17T12:51:29;94309.88;;;27.70;35.21
65359;BME280;52491;45.900;6.346;2022-07-17T12:53:56;94307.19;;;27.70;35.24
65359;BME280;52491;45.900;6.346;2022-07-17T12:56:22;94313.38;;;27.70;35.09
65359;BME280;52491;45.900;6.346;2022-07-17T12:58:48;94307.19;;;27.70;35.56
65359;BME280;52491;45.900;6.346;2022-07-17T13:01:15;94316.06;;;27.70;35.47
65359;BME280;52491;45.900;6.346;2022-07-17T13:03:41;94309.88;;;27.70;35.49
65359;BME280;52491;45.900;6.346;2022-07-17T13:06:07;94308.03;;;27.70;35.51
65359;BME280;52491;45.900;6.346;2022-07-17T13:08:33;94308.03;;;27.70;35.36
65359;BME280;52491;45.900;6.346;2022-07-17T13:10:59;94312.28;;;27.71;35.33
65359;BME280;52491;45.900;6.346;2022-07-17T13:13:25;94303.47;;;27.71;35.37